sensor_id;sensor_type;location;lat;lon;timestamp;pressure;altitude;pressure_sealevel;temperature;humidity
77574;BME280;66710;48.868;9.080;2023-07-08T00:00:41;98069.84;;;19.23;49.16
77574;BME280;66710;48.868;9.080;2023-07-08T00:03:06;98068.72;;;19.16;48.97
77574;BME280;66710;48.868;9.080;2023-07-08T00:05:32;98060.09;;;19.26;48.64
77574;BME280;66710;48.868;9.080;2023-07-08T00:07:59;98060.28;;;19.12;49.88
77574;BME280;66710;48.868;9.080;2023-07-08T00:10:26;98062.25;;;19.11;49.88
77574;BME280;66710;48.868;9.080;2023-07-08T00:12:55;98058.66;;;19.11;46.37
77574;BME280;66710;48.868;9.080;2023-07-08T00:15:24;98050.38;;;19.11;45.07
77574;BME280;66710;48.868;9.080;2023-07-08T00:17:50;98043.84;;;19.24;44.64
77574;BME280;66710;48.868;9.080;2023-07-08T00:20:38;98042.00;;;19.46;43.62
77574;BME280;66710;48.868;9.080;2023-07-08T00:23:04;98038.69;;;19.61;42.82
77574;BME280;66710;48.868;9.080;2023-07-08T00:25:30;98044.59;;;19.51;44.29
77574;BME280;66710;48.868;9.080;2023-07-08T00:27:56;98041.72;;;19.30;48.33
77574;BME280;66710;48.868;9.080;2023-07-08T00:30:27;98045.16;;;19.18;49.28
77574;BME280;66710;48.868;9.080;2023-07-08T00:32:54;98041.94;;;18.99;50.48
77574;BME280;66710;48.868;9.080;2023-07-08T00:35:35;98038.88;;;18.91;48.42
77574;BME280;66710;48.868;9.080;2023-07-08T00:38:02;98040.81;;;19.00;47.76
77574;BME280;66710;48.868;9.080;2023-07-08T00:40:38;98043.09;;;19.06;47.25
77574;BME280;66710;48.868;9.080;2023-07-08T00:43:05;98040.81;;;18.91;48.67
77574;BME280;66710;48.868;9.080;2023-07-08T00:45:37;98046.16;;;19.05;46.02
77574;BME280;66710;48.868;9.080;2023-07-08T00:48:16;98051.34;;;19.24;45.22
77574;BME280;66710;48.868;9.080;2023-07-08T00:50:43;98049.38;;;19.33;43.97
77574;BME280;66710;48.868;9.080;2023-07-08T00:55:58;98060.81;;;19.61;42.20
77574;BME280;66710;48.868;9.080;2023-07-08T00:58:24;98067.16;;;19.53;42.44
77574;BME280;66710;48.868;9.080;2023-07-08T01:00:51;98059.88;;;19.48;42.77
77574;BME280;66710;48.868;9.080;2023-07-08T01:03:18;98060.75;;;19.31;43.61
77574;BME280;66710;48.868;9.080;2023-07-08T01:05:45;98060.47;;;18.98;47.50
77574;BME280;66710;48.868;9.080;2023-07-08T01:08:11;98054.94;;;18.98;43.55
77574;BME280;66710;48.868;9.080;2023-07-08T01:10:42;98050.38;;;18.93;43.57
77574;BME280;66710;48.868;9.080;2023-07-08T01:13:11;98061.94;;;19.04;42.76
77574;BME280;66710;48.868;9.080;2023-07-08T01:15:43;98045.84;;;19.15;42.53
77574;BME280;66710;48.868;9.080;2023-07-08T01:18:12;98050.69;;;19.18;42.58
77574;BME280;66710;48.868;9.080;2023-07-08T01:20:42;98043.25;;;19.01;47.12
77574;BME280;66710;48.868;9.080;2023-07-08T01:23:07;98040.31;;;18.63;50.24
77574;BME280;66710;48.868;9.080;2023-07-08T01:25:33;98045.81;;;18.36;50.75
77574;BME280;66710;48.868;9.080;2023-07-08T01:27:58;98049.88;;;18.30;50.02
77574;BME280;66710;48.868;9.080;2023-07-08T01:30:25;98053.16;;;18.59;47.62
77574;BME280;66710;48.868;9.080;2023-07-08T01:32:55;98050.38;;;19.02;44.84
77574;BME280;66710;48.868;9.080;2023-07-08T01:35:22;98042.91;;;19.11;45.32
77574;BME280;66710;48.868;9.080;2023-07-08T01:37:52;98051.69;;;18.79;49.78
77574;BME280;66710;48.868;9.080;2023-07-08T01:42:44;98039.16;;;18.20;52.18
77574;BME280;66710;48.868;9.080;2023-07-08T01:45:14;98040.25;;;18.02;54.39
77574;BME280;66710;48.868;9.080;2023-07-08T01:47:41;98042.84;;;18.07;53.43
77574;BME280;66710;48.868;9.080;2023-07-08T01:50:09;98039.56;;;17.87;54.03
77574;BME280;66710;48.868;9.080;2023-07-08T01:52:36;98045.91;;;17.56;54.12
77574;BME280;66710;48.868;9.080;2023-07-08T01:55:02;98047.03;;;17.87;52.81
77574;BME280;66710;48.868;9.080;2023-07-08T01:57:27;98049.00;;;17.95;51.16
77574;BME280;66710;48.868;9.080;2023-07-08T01:59:52;98047.56;;;18.15;52.66
77574;BME280;66710;48.868;9.080;2023-07-08T02:02:17;98047.25;;;18.08;51.68
77574;BME280;66710;48.868;9.080;2023-07-08T02:04:43;98041.25;;;18.06;48.26
77574;BME280;66710;48.868;9.080;2023-07-08T02:07:08;98052.16;;;17.79;53.06
77574;BME280;66710;48.868;9.080;2023-07-08T02:09:33;98040.22;;;17.53;53.83
77574;BME280;66710;48.868;9.080;2023-07-08T02:11:58;98048.72;;;17.34;54.33
77574;BME280;66710;48.868;9.080;2023-07-08T02:14:24;98045.41;;;17.23;57.07
77574;BME280;66710;48.868;9.080;2023-07-08T02:16:49;98049.72;;;17.15;56.25
77574;BME280;66710;48.868;9.080;2023-07-08T02:19:14;98046.25;;;17.01;55.60
77574;BME280;66710;48.868;9.080;2023-07-08T02:21:39;98059.44;;;16.90;54.71
77574;BME280;66710;48.868;9.080;2023-07-08T02:24:05;98057.31;;;17.10;52.13
77574;BME280;66710;48.868;9.080;2023-07-08T02:26:31;98057.97;;;17.15;52.56
77574;BME280;66710;48.868;9.080;2023-07-08T02:29:00;98063.78;;;17.05;52.80
77574;BME280;66710;48.868;9.080;2023-07-08T02:31:26;98057.91;;;16.98;53.54
77574;BME280;66710;48.868;9.080;2023-07-08T02:33:52;98061.88;;;16.92;53.39
77574;BME280;66710;48.868;9.080;2023-07-08T02:36:18;98054.13;;;17.16;52.69
77574;BME280;66710;48.868;9.080;2023-07-08T02:38:43;98049.41;;;17.17;52.43
77574;BME280;66710;48.868;9.080;2023-07-08T02:41:08;98057.22;;;17.23;51.97
77574;BME280;66710;48.868;9.080;2023-07-08T02:43:34;98047.84;;;17.24;51.75
77574;BME280;66710;48.868;9.080;2023-07-08T02:45:59;98067.63;;;17.27;51.54
77574;BME280;66710;48.868;9.080;2023-07-08T02:48:24;98065.97;;;17.25;51.35
77574;BME280;66710;48.868;9.080;2023-07-08T02:50:50;98072.19;;;17.31;51.10
77574;BME280;66710;48.868;9.080;2023-07-08T02:53:15;98071.84;;;17.33;51.03
77574;BME280;66710;48.868;9.080;2023-07-08T02:55:40;98062.34;;;17.39;50.18
77574;BME280;66710;48.868;9.080;2023-07-08T02:58:08;98070.38;;;17.27;51.15
77574;BME280;66710;48.868;9.080;2023-07-08T03:00:34;98068.38;;;17.18;52.62
77574;BME280;66710;48.868;9.080;2023-07-08T03:03:03;98078.09;;;17.16;51.95
77574;BME280;66710;48.868;9.080;2023-07-08T03:05:28;98073.81;;;17.10;53.48
77574;BME280;66710;48.868;9.080;2023-07-08T03:07:54;98077.59;;;17.14;52.92
77574;BME280;66710;48.868;9.080;2023-07-08T03:10:19;98087.66;;;17.18;52.17
77574;BME280;66710;48.868;9.080;2023-07-08T03:12:44;98081.84;;;17.20;51.58
77574;BME280;66710;48.868;9.080;2023-07-08T03:15:10;98097.47;;;17.33;51.59
77574;BME280;66710;48.868;9.080;2023-07-08T03:17:35;98103.47;;;17.13;53.12
77574;BME280;66710;48.868;9.080;2023-07-08T03:20:00;98102.38;;;17.14;53.79
77574;BME280;66710;48.868;9.080;2023-07-08T03:22:25;98096.75;;;17.19;53.64
77574;BME280;66710;48.868;9.080;2023-07-08T03:24:51;98093.03;;;17.23;53.29
77574;BME280;66710;48.868;9.080;2023-07-08T03:27:16;98102.03;;;17.38;52.41
77574;BME280;66710;48.868;9.080;2023-07-08T03:29:42;98110.41;;;17.33;52.60
77574;BME280;66710;48.868;9.080;2023-07-08T03:32:10;98100.91;;;17.16;53.88
77574;BME280;66710;48.868;9.080;2023-07-08T03:34:36;98084.28;;;17.21;53.02
77574;BME280;66710;48.868;9.080;2023-07-08T03:37:01;98087.88;;;17.31;53.50
77574;BME280;66710;48.868;9.080;2023-07-08T03:39:27;98100.31;;;17.19;54.24
77574;BME280;66710;48.868;9.080;2023-07-08T03:41:53;98098.72;;;17.04;54.78
77574;BME280;66710;48.868;9.080;2023-07-08T03:44:19;98077.13;;;17.20;54.32
77574;BME280;66710;48.868;9.080;2023-07-08T03:46:46;98076.50;;;17.01;56.42
77574;BME280;66710;48.868;9.080;2023-07-08T03:49:13;98083.59;;;16.93;55.41
77574;BME280;66710;48.868;9.080;2023-07-08T03:51:40;98093.75;;;17.07;55.65
77574;BME280;66710;48.868;9.080;2023-07-08T03:54:09;98108.94;;;17.04;54.82
77574;BME280;66710;48.868;9.080;2023-07-08T03:56:35;98099.06;;;17.03;54.98
77574;BME280;66710;48.868;9.080;2023-07-08T03:59:00;98095.09;;;16.95;55.36
77574;BME280;66710;48.868;9.080;2023-07-08T04:01:26;98101.28;;;17.01;54.90
77574;BME280;66710;48.868;9.080;2023-07-08T04:03:53;98101.94;;;16.98;54.77
77574;BME280;66710;48.868;9.080;2023-07-08T04:06:19;98101.44;;;16.82;56.41
77574;BME280;66710;48.868;9.080;2023-07-08T04:08:45;98104.13;;;16.73;57.11
77574;BME280;66710;48.868;9.080;2023-07-08T04:11:12;98104.44;;;16.72;57.57
77574;BME280;66710;48.868;9.080;2023-07-08T04:13:38;98095.72;;;16.92;56.15
77574;BME280;66710;48.868;9.080;2023-07-08T04:16:05;98100.38;;;17.05;55.79
77574;BME280;66710;48.868;9.080;2023-07-08T04:18:31;98086.34;;;17.16;55.47
77574;BME280;66710;48.868;9.080;2023-07-08T04:20:56;98088.31;;;17.24;54.80
77574;BME280;66710;48.868;9.080;2023-07-08T04:23:22;98080.31;;;17.36;54.78
77574;BME280;66710;48.868;9.080;2023-07-08T04:25:49;98086.34;;;17.38;55.26
77574;BME280;66710;48.868;9.080;2023-07-08T04:28:14;98086.81;;;17.40;56.41
77574;BME280;66710;48.868;9.080;2023-07-08T04:30:41;98086.16;;;17.35;55.54
77574;BME280;66710;48.868;9.080;2023-07-08T04:33:07;98087.63;;;17.41;55.26
77574;BME280;66710;48.868;9.080;2023-07-08T04:35:34;98081.72;;;17.56;54.52
77574;BME280;66710;48.868;9.080;2023-07-08T04:38:00;98074.97;;;17.71;54.46
77574;BME280;66710;48.868;9.080;2023-07-08T04:40:26;98078.38;;;17.77;54.60
77574;BME280;66710;48.868;9.080;2023-07-08T04:42:51;98078.47;;;17.86;55.50
77574;BME280;66710;48.868;9.080;2023-07-08T04:45:17;98079.78;;;17.88;54.79
77574;BME280;66710;48.868;9.080;2023-07-08T04:47:44;98082.28;;;18.07;53.46
77574;BME280;66710;48.868;9.080;2023-07-08T04:50:12;98083.44;;;18.24;52.85
77574;BME280;66710;48.868;9.080;2023-07-08T04:52:37;98082.47;;;18.37;52.98
77574;BME280;66710;48.868;9.080;2023-07-08T04:55:03;98097.28;;;18.50;54.76
77574;BME280;66710;48.868;9.080;2023-07-08T04:57:28;98098.28;;;18.71;53.33
77574;BME280;66710;48.868;9.080;2023-07-08T04:59:54;98101.19;;;18.66;55.81
77574;BME280;66710;48.868;9.080;2023-07-08T05:02:19;98098.59;;;18.61;58.01
77574;BME280;66710;48.868;9.080;2023-07-08T05:04:45;98099.56;;;18.39;56.20
77574;BME280;66710;48.868;9.080;2023-07-08T05:07:10;98114.25;;;18.17;55.05
77574;BME280;66710;48.868;9.080;2023-07-08T05:09:35;98108.28;;;18.24;54.20
77574;BME280;66710;48.868;9.080;2023-07-08T05:12:01;98102.78;;;18.32;54.84
77574;BME280;66710;48.868;9.080;2023-07-08T05:14:26;98099.41;;;18.44;55.22
77574;BME280;66710;48.868;9.080;2023-07-08T05:16:51;98112.38;;;18.52;54.42
77574;BME280;66710;48.868;9.080;2023-07-08T05:19:16;98109.78;;;18.56;54.40
77574;BME280;66710;48.868;9.080;2023-07-08T05:21:43;98101.03;;;18.63;53.41
77574;BME280;66710;48.868;9.080;2023-07-08T05:24:10;98102.69;;;18.72;53.45
77574;BME280;66710;48.868;9.080;2023-07-08T05:26:35;98117.50;;;18.94;52.09
77574;BME280;66710;48.868;9.080;2023-07-08T05:29:01;98138.06;;;18.79;53.83
77574;BME280;66710;48.868;9.080;2023-07-08T05:31:27;98136.13;;;19.23;51.39
77574;BME280;66710;48.868;9.080;2023-07-08T05:33:52;98106.28;;;19.81;47.80
77574;BME280;66710;48.868;9.080;2023-07-08T05:36:18;98118.34;;;20.15;48.46
77574;BME280;66710;48.868;9.080;2023-07-08T05:38:43;98128.13;;;20.13;49.34
77574;BME280;66710;48.868;9.080;2023-07-08T05:41:08;98126.53;;;20.03;49.00
77574;BME280;66710;48.868;9.080;2023-07-08T05:43:33;98134.47;;;20.13;48.92
77574;BME280;66710;48.868;9.080;2023-07-08T05:46:00;98142.47;;;20.44;49.31
77574;BME280;66710;48.868;9.080;2023-07-08T05:48:25;98140.59;;;20.57;48.26
77574;BME280;66710;48.868;9.080;2023-07-08T05:50:51;98146.44;;;20.56;48.46
77574;BME280;66710;48.868;9.080;2023-07-08T05:53:18;98130.53;;;20.53;48.91
77574;BME280;66710;48.868;9.080;2023-07-08T05:55:44;98137.66;;;20.62;48.13
77574;BME280;66710;48.868;9.080;2023-07-08T05:58:10;98126.19;;;20.73;47.68
77574;BME280;66710;48.868;9.080;2023-07-08T06:00:36;98135.09;;;21.20;47.76
77574;BME280;66710;48.868;9.080;2023-07-08T06:03:01;98140.09;;;21.48;45.61
77574;BME280;66710;48.868;9.080;2023-07-08T06:05:27;98149.75;;;21.75;45.29
77574;BME280;66710;48.868;9.080;2023-07-08T06:07:52;98149.75;;;21.75;44.78
77574;BME280;66710;48.868;9.080;2023-07-08T06:10:17;98151.00;;;21.66;44.95
77574;BME280;66710;48.868;9.080;2023-07-08T06:12:43;98162.06;;;21.99;44.39
77574;BME280;66710;48.868;9.080;2023-07-08T06:15:08;98148.09;;;22.20;43.75
77574;BME280;66710;48.868;9.080;2023-07-08T06:17:33;98146.50;;;22.44;43.07
77574;BME280;66710;48.868;9.080;2023-07-08T06:19:59;98151.56;;;22.66;42.36
77574;BME280;66710;48.868;9.080;2023-07-08T06:22:24;98141.50;;;22.74;42.47
77574;BME280;66710;48.868;9.080;2023-07-08T06:24:49;98132.53;;;23.05;43.44
77574;BME280;66710;48.868;9.080;2023-07-08T06:27:15;98130.88;;;23.04;43.56
77574;BME280;66710;48.868;9.080;2023-07-08T06:29:40;98130.47;;;23.31;42.37
77574;BME280;66710;48.868;9.080;2023-07-08T06:32:06;98142.19;;;23.52;42.78
77574;BME280;66710;48.868;9.080;2023-07-08T06:34:32;98150.56;;;23.68;40.79
77574;BME280;66710;48.868;9.080;2023-07-08T06:36:57;98154.44;;;23.63;39.98
77574;BME280;66710;48.868;9.080;2023-07-08T06:39:22;98153.81;;;23.98;39.89
77574;BME280;66710;48.868;9.080;2023-07-08T06:41:47;98162.34;;;24.53;39.69
77574;BME280;66710;48.868;9.080;2023-07-08T06:44:13;98172.53;;;24.49;38.35
77574;BME280;66710;48.868;9.080;2023-07-08T06:46:38;98184.75;;;24.92;39.08
77574;BME280;66710;48.868;9.080;2023-07-08T06:49:03;98180.16;;;25.20;36.83
77574;BME280;66710;48.868;9.080;2023-07-08T06:51:29;98175.38;;;25.36;36.63
77574;BME280;66710;48.868;9.080;2023-07-08T06:53:54;98184.41;;;25.91;36.65
77574;BME280;66710;48.868;9.080;2023-07-08T06:56:20;98183.53;;;26.30;35.94
77574;BME280;66710;48.868;9.080;2023-07-08T06:58:45;98185.91;;;27.04;35.58
77574;BME280;66710;48.868;9.080;2023-07-08T07:01:11;98184.44;;;25.72;36.91
77574;BME280;66710;48.868;9.080;2023-07-08T07:03:37;98191.38;;;25.23;37.96
77574;BME280;66710;48.868;9.080;2023-07-08T07:06:02;98184.25;;;25.06;38.63
77574;BME280;66710;48.868;9.080;2023-07-08T07:08:28;98187.38;;;25.40;38.24
77574;BME280;66710;48.868;9.080;2023-07-08T07:10:53;98186.53;;;25.36;39.38
77574;BME280;66710;48.868;9.080;2023-07-08T07:13:18;98185.53;;;25.48;39.54
77574;BME280;66710;48.868;9.080;2023-07-08T07:15:43;98180.47;;;25.34;39.12
77574;BME280;66710;48.868;9.080;2023-07-08T07:18:09;98196.25;;;25.26;39.05
77574;BME280;66710;48.868;9.080;2023-07-08T07:20:36;98195.91;;;25.28;37.47
77574;BME280;66710;48.868;9.080;2023-07-08T07:23:02;98185.31;;;25.37;38.85
77574;BME280;66710;48.868;9.080;2023-07-08T07:25:27;98184.53;;;25.37;39.06
77574;BME280;66710;48.868;9.080;2023-07-08T07:27:53;98178.81;;;25.49;38.37
77574;BME280;66710;48.868;9.080;2023-07-08T07:30:18;98186.06;;;25.34;37.70
77574;BME280;66710;48.868;9.080;2023-07-08T07:32:44;98195.72;;;25.21;37.44
77574;BME280;66710;48.868;9.080;2023-07-08T07:35:10;98200.88;;;25.19;37.97
77574;BME280;66710;48.868;9.080;2023-07-08T07:37:38;98197.81;;;25.63;37.19
77574;BME280;66710;48.868;9.080;2023-07-08T07:40:12;98201.69;;;26.20;35.47
77574;BME280;66710;48.868;9.080;2023-07-08T07:42:40;98202.00;;;26.15;35.75
77574;BME280;66710;48.868;9.080;2023-07-08T07:45:06;98207.03;;;25.86;35.97
77574;BME280;66710;48.868;9.080;2023-07-08T07:47:32;98203.91;;;25.68;35.87
77574;BME280;66710;48.868;9.080;2023-07-08T07:49:57;98198.47;;;26.91;33.64
77574;BME280;66710;48.868;9.080;2023-07-08T07:52:23;98201.63;;;27.13;34.59
77574;BME280;66710;48.868;9.080;2023-07-08T07:54:50;98208.59;;;26.99;35.10
77574;BME280;66710;48.868;9.080;2023-07-08T07:57:16;98213.78;;;26.24;35.50
77574;BME280;66710;48.868;9.080;2023-07-08T07:59:41;98208.38;;;27.38;33.35
77574;BME280;66710;48.868;9.080;2023-07-08T08:02:07;98205.53;;;27.69;32.84
77574;BME280;66710;48.868;9.080;2023-07-08T08:04:33;98208.59;;;27.56;32.91
77574;BME280;66710;48.868;9.080;2023-07-08T08:06:58;98195.19;;;27.73;32.11
77574;BME280;66710;48.868;9.080;2023-07-08T08:09:24;98200.41;;;28.08;32.96
77574;BME280;66710;48.868;9.080;2023-07-08T08:11:49;98187.28;;;28.64;31.36
77574;BME280;66710;48.868;9.080;2023-07-08T08:14:14;98194.28;;;28.40;32.29
77574;BME280;66710;48.868;9.080;2023-07-08T08:16:39;98197.31;;;28.62;31.40
77574;BME280;66710;48.868;9.080;2023-07-08T08:19:05;98191.63;;;29.13;30.96
77574;BME280;66710;48.868;9.080;2023-07-08T08:21:30;98198.56;;;28.68;30.63
77574;BME280;66710;48.868;9.080;2023-07-08T08:23:55;98194.94;;;29.23;31.26
77574;BME280;66710;48.868;9.080;2023-07-08T08:26:20;98200.69;;;29.59;30.44
77574;BME280;66710;48.868;9.080;2023-07-08T08:28:46;98205.94;;;29.67;30.64
77574;BME280;66710;48.868;9.080;2023-07-08T08:31:11;98201.19;;;29.79;29.87
77574;BME280;66710;48.868;9.080;2023-07-08T08:33:36;98200.66;;;29.48;30.58
77574;BME280;66710;48.868;9.080;2023-07-08T08:36:02;98213.31;;;29.97;29.72
77574;BME280;66710;48.868;9.080;2023-07-08T08:38:27;98212.84;;;29.77;29.26
77574;BME280;66710;48.868;9.080;2023-07-08T08:40:52;98205.16;;;29.67;28.88
77574;BME280;66710;48.868;9.080;2023-07-08T08:43:24;98205.47;;;29.44;30.01
77574;BME280;66710;48.868;9.080;2023-07-08T08:46:00;98200.47;;;30.14;29.24
77574;BME280;66710;48.868;9.080;2023-07-08T08:48:30;98204.53;;;30.31;28.60
77574;BME280;66710;48.868;9.080;2023-07-08T08:51:01;98200.00;;;29.76;29.83
77574;BME280;66710;48.868;9.080;2023-07-08T08:53:29;98204.97;;;30.76;29.03
77574;BME280;66710;48.868;9.080;2023-07-08T08:56:10;98195.31;;;30.74;28.46
77574;BME280;66710;48.868;9.080;2023-07-08T08:58:43;98213.81;;;30.93;29.35
77574;BME280;66710;48.868;9.080;2023-07-08T09:01:13;98215.41;;;31.08;28.92
77574;BME280;66710;48.868;9.080;2023-07-08T09:03:45;98218.56;;;30.13;29.45
77574;BME280;66710;48.868;9.080;2023-07-08T09:06:29;98209.28;;;31.38;28.61
77574;BME280;66710;48.868;9.080;2023-07-08T09:09:02;98207.91;;;31.86;27.03
77574;BME280;66710;48.868;9.080;2023-07-08T09:11:44;98203.31;;;31.26;30.08
77574;BME280;66710;48.868;9.080;2023-07-08T09:14:16;98204.84;;;31.37;28.34
77574;BME280;66710;48.868;9.080;2023-07-08T09:16:47;98191.81;;;32.46;25.67
77574;BME280;66710;48.868;9.080;2023-07-08T09:19:29;98200.34;;;32.39;27.44
77574;BME280;66710;48.868;9.080;2023-07-08T09:22:12;98203.28;;;32.21;27.93
77574;BME280;66710;48.868;9.080;2023-07-08T09:24:43;98192.50;;;32.09;27.84
77574;BME280;66710;48.868;9.080;2023-07-08T09:27:10;98190.97;;;31.90;27.18
77574;BME280;66710;48.868;9.080;2023-07-08T09:29:35;98187.34;;;31.93;26.55
77574;BME280;66710;48.868;9.080;2023-07-08T09:32:19;98187.84;;;32.40;25.96
77574;BME280;66710;48.868;9.080;2023-07-08T09:34:50;98181.91;;;32.76;25.80
77574;BME280;66710;48.868;9.080;2023-07-08T09:37:25;98180.19;;;31.74;25.75
77574;BME280;66710;48.868;9.080;2023-07-08T09:39:52;98178.97;;;31.79;25.99
77574;BME280;66710;48.868;9.080;2023-07-08T09:42:18;98182.72;;;32.28;25.40
77574;BME280;66710;48.868;9.080;2023-07-08T09:44:45;98180.22;;;32.82;24.58
77574;BME280;66710;48.868;9.080;2023-07-08T09:47:21;98182.81;;;33.08;24.83
77574;BME280;66710;48.868;9.080;2023-07-08T09:49:47;98182.75;;;32.17;24.84
77574;BME280;66710;48.868;9.080;2023-07-08T09:52:12;98185.81;;;31.74;24.99
77574;BME280;66710;48.868;9.080;2023-07-08T09:54:40;98185.81;;;31.78;24.83
77574;BME280;66710;48.868;9.080;2023-07-08T09:57:15;98191.59;;;31.38;25.55
77574;BME280;66710;48.868;9.080;2023-07-08T09:59:49;98178.19;;;31.71;24.67
77574;BME280;66710;48.868;9.080;2023-07-08T10:02:25;98166.34;;;31.98;24.50
77574;BME280;66710;48.868;9.080;2023-07-08T10:04:53;98170.00;;;31.98;24.79
77574;BME280;66710;48.868;9.080;2023-07-08T10:07:19;98167.16;;;32.05;25.23
77574;BME280;66710;48.868;9.080;2023-07-08T10:09:47;98167.38;;;32.29;24.38
77574;BME280;66710;48.868;9.080;2023-07-08T10:12:14;98174.59;;;31.67;24.76
77574;BME280;66710;48.868;9.080;2023-07-08T10:14:45;98169.56;;;31.96;24.41
77574;BME280;66710;48.868;9.080;2023-07-08T10:17:15;98171.38;;;31.65;25.64
77574;BME280;66710;48.868;9.080;2023-07-08T10:19:41;98177.84;;;31.62;25.88
77574;BME280;66710;48.868;9.080;2023-07-08T10:22:26;98171.56;;;31.99;24.86
77574;BME280;66710;48.868;9.080;2023-07-08T10:25:10;98172.44;;;31.89;25.25
77574;BME280;66710;48.868;9.080;2023-07-08T10:28:03;98174.81;;;31.94;25.25
77574;BME280;66710;48.868;9.080;2023-07-08T10:31:25;98168.91;;;31.74;26.01
77574;BME280;66710;48.868;9.080;2023-07-08T10:33:38;98170.34;;;32.63;24.42
77574;BME280;66710;48.868;9.080;2023-07-08T10:42:04;98155.66;;;32.34;24.42
77574;BME280;66710;48.868;9.080;2023-07-08T10:44:39;98157.84;;;32.08;24.20
77574;BME280;66710;48.868;9.080;2023-07-08T10:49:56;98170.28;;;32.18;24.37
77574;BME280;66710;48.868;9.080;2023-07-08T11:03:48;98169.13;;;32.12;27.01
77574;BME280;66710;48.868;9.080;2023-07-08T11:06:27;98176.13;;;31.82;27.03
77574;BME280;66710;48.868;9.080;2023-07-08T11:08:56;98171.03;;;31.52;26.88
77574;BME280;66710;48.868;9.080;2023-07-08T11:11:34;98165.44;;;31.34;27.21
77574;BME280;66710;48.868;9.080;2023-07-08T11:17:11;98158.16;;;31.47;26.06
77574;BME280;66710;48.868;9.080;2023-07-08T11:19:58;98172.97;;;31.66;26.91
77574;BME280;66710;48.868;9.080;2023-07-08T11:22:28;98157.66;;;31.70;27.27
77574;BME280;66710;48.868;9.080;2023-07-08T11:24:57;98157.59;;;31.81;27.37
77574;BME280;66710;48.868;9.080;2023-07-08T11:27:27;98159.34;;;32.24;26.78
77574;BME280;66710;48.868;9.080;2023-07-08T11:32:25;98175.94;;;31.26;27.74
77574;BME280;66710;48.868;9.080;2023-07-08T11:34:53;98160.06;;;31.72;26.77
77574;BME280;66710;48.868;9.080;2023-07-08T11:37:20;98163.13;;;31.96;28.07
77574;BME280;66710;48.868;9.080;2023-07-08T11:39:54;98162.16;;;32.24;26.26
77574;BME280;66710;48.868;9.080;2023-07-08T11:42:23;98162.19;;;32.73;25.74
77574;BME280;66710;48.868;9.080;2023-07-08T11:44:53;98157.94;;;31.90;25.83
77574;BME280;66710;48.868;9.080;2023-07-08T11:47:39;98151.44;;;32.01;27.34
77574;BME280;66710;48.868;9.080;2023-07-08T11:50:16;98146.56;;;32.61;25.41
77574;BME280;66710;48.868;9.080;2023-07-08T11:52:55;98141.78;;;32.50;26.59
77574;BME280;66710;48.868;9.080;2023-07-08T12:03:46;98149.53;;;31.83;26.73
77574;BME280;66710;48.868;9.080;2023-07-08T12:08:54;98136.75;;;33.79;26.63
77574;BME280;66710;48.868;9.080;2023-07-08T12:11:27;98127.91;;;32.25;26.88
77574;BME280;66710;48.868;9.080;2023-07-08T12:13:54;98130.94;;;33.90;25.00
77574;BME280;66710;48.868;9.080;2023-07-08T12:16:21;98133.81;;;33.56;24.97
77574;BME280;66710;48.868;9.080;2023-07-08T12:18:47;98126.41;;;32.62;26.16
77574;BME280;66710;48.868;9.080;2023-07-08T12:21:13;98132.69;;;34.08;25.12
77574;BME280;66710;48.868;9.080;2023-07-08T12:23:44;98137.81;;;32.90;25.71
77574;BME280;66710;48.868;9.080;2023-07-08T12:26:10;98132.41;;;34.29;24.33
77574;BME280;66710;48.868;9.080;2023-07-08T12:28:37;98128.63;;;34.60;24.33
77574;BME280;66710;48.868;9.080;2023-07-08T12:31:02;98127.19;;;34.95;23.35
77574;BME280;66710;48.868;9.080;2023-07-08T12:33:30;98129.06;;;34.07;24.08
77574;BME280;66710;48.868;9.080;2023-07-08T12:35:59;98134.34;;;33.16;25.25
77574;BME280;66710;48.868;9.080;2023-07-08T12:38:31;98127.72;;;34.66;24.06
77574;BME280;66710;48.868;9.080;2023-07-08T12:41:05;98124.75;;;33.72;24.86
77574;BME280;66710;48.868;9.080;2023-07-08T12:43:34;98123.09;;;34.02;24.66
77574;BME280;66710;48.868;9.080;2023-07-08T12:45:59;98131.38;;;34.87;24.19
77574;BME280;66710;48.868;9.080;2023-07-08T12:48:25;98130.13;;;33.28;25.84
77574;BME280;66710;48.868;9.080;2023-07-08T12:50:50;98138.97;;;32.96;26.89
77574;BME280;66710;48.868;9.080;2023-07-08T12:53:15;98128.31;;;33.76;25.39
77574;BME280;66710;48.868;9.080;2023-07-08T12:55:42;98127.69;;;35.34;24.49
77574;BME280;66710;48.868;9.080;2023-07-08T12:58:13;98119.59;;;34.68;23.46
77574;BME280;66710;48.868;9.080;2023-07-08T13:00:40;98120.19;;;34.32;24.47
77574;BME280;66710;48.868;9.080;2023-07-08T13:03:08;98110.19;;;33.73;25.14
77574;BME280;66710;48.868;9.080;2023-07-08T13:05:39;98108.88;;;35.00;24.07
77574;BME280;66710;48.868;9.080;2023-07-08T13:08:05;98111.44;;;32.69;25.58
77574;BME280;66710;48.868;9.080;2023-07-08T13:10:32;98106.19;;;34.25;23.65
77574;BME280;66710;48.868;9.080;2023-07-08T13:13:03;98106.38;;;34.11;24.15
77574;BME280;66710;48.868;9.080;2023-07-08T13:15:36;98114.69;;;34.92;23.25
77574;BME280;66710;48.868;9.080;2023-07-08T13:18:04;98117.09;;;35.54;22.28
77574;BME280;66710;48.868;9.080;2023-07-08T13:20:29;98111.03;;;35.16;22.75
77574;BME280;66710;48.868;9.080;2023-07-08T13:22:59;98105.16;;;35.26;22.79
77574;BME280;66710;48.868;9.080;2023-07-08T13:25:28;98104.41;;;35.02;22.88
77574;BME280;66710;48.868;9.080;2023-07-08T13:27:59;98108.75;;;35.47;23.31
77574;BME280;66710;48.868;9.080;2023-07-08T13:30:27;98104.38;;;35.62;23.01
77574;BME280;66710;48.868;9.080;2023-07-08T13:33:02;98102.94;;;34.50;23.38
77574;BME280;66710;48.868;9.080;2023-07-08T13:35:37;98109.53;;;32.55;25.71
77574;BME280;66710;48.868;9.080;2023-07-08T13:38:03;98105.28;;;32.33;26.20
77574;BME280;66710;48.868;9.080;2023-07-08T13:40:30;98107.97;;;31.98;26.57
77574;BME280;66710;48.868;9.080;2023-07-08T13:42:56;98099.91;;;33.56;26.11
77574;BME280;66710;48.868;9.080;2023-07-08T13:45:25;98103.50;;;32.91;25.72